Time;durP1;ratioP1;P1;durP2;ratioP2;P2;SDS_P1;SDS_P2;PMS_P1;PMS_P2;Temp;Humidity;BMP_temperature;BMP_pressure;BME280_temperature;BME280_humidity;BME280_pressure;Samples;Min_cycle;Max_cycle;Signal;HPM_P1;HPM_P2
2023/06/09 00:02:07;;;;;;;14.65;5.78;;;12.30;99.90;;;;;;5070389;28;20447;-80
2023/06/09 00:04:36;;;;;;;13.85;5.63;;;12.30;99.90;;;;;;5069616;28;20048;-81
2023/06/09 00:07:03;;;;;;;12.20;4.85;;;12.50;99.90;;;;;;5069546;28;20052;-81
2023/06/09 00:09:32;;;;;;;11.48;5.30;;;12.40;99.90;;;;;;5051046;28;20093;-81
2023/06/09 00:11:58;;;;;;;9.50;5.22;;;12.40;99.90;;;;;;5068248;28;20040;-81
2023/06/09 00:14:24;;;;;;;13.80;4.88;;;12.50;99.90;;;;;;5068817;28;20040;-81
2023/06/09 00:16:50;;;;;;;13.35;5.18;;;12.40;99.90;;;;;;5068677;28;20044;-80
2023/06/09 00:19:17;;;;;;;19.00;5.88;;;12.40;99.90;;;;;;5070073;28;20585;-81
2023/06/09 00:21:49;;;;;;;12.25;4.78;;;12.90;99.90;;;;;;5069465;28;20388;-81
2023/06/09 00:24:21;;;;;;;11.70;5.70;;;12.40;99.90;;;;;;5068811;28;20155;-81
2023/06/09 00:26:51;;;;;;;10.65;5.07;;;12.40;99.90;;;;;;5051209;28;20377;-80
2023/06/09 00:29:18;;;;;;;12.00;5.10;;;12.50;99.90;;;;;;5069258;28;20051;-81
2023/06/09 00:31:44;;;;;;;11.82;5.00;;;12.40;99.90;;;;;;5070973;28;20071;-81
2023/06/09 00:34:10;;;;;;;13.45;5.35;;;12.40;99.90;;;;;;5070056;28;20057;-80
2023/06/09 00:36:36;;;;;;;12.48;5.50;;;12.40;99.90;;;;;;5053943;28;20044;-79
2023/06/09 00:39:02;;;;;;;13.65;5.30;;;12.40;99.90;;;;;;5071613;28;20074;-81
2023/06/09 00:41:28;;;;;;;11.85;6.13;;;12.60;99.90;;;;;;5071167;28;20056;-80
2023/06/09 00:43:55;;;;;;;13.93;5.82;;;12.40;99.90;;;;;;5070618;28;20056;-81
2023/06/09 00:46:22;;;;;;;15.80;5.65;;;12.40;99.90;;;;;;5070437;28;20060;-82
2023/06/09 00:48:51;;;;;;;14.50;6.03;;;12.40;99.90;;;;;;5070360;28;20049;-82
2023/06/09 00:51:17;;;;;;;10.88;6.15;;;12.40;99.90;;;;;;5070194;28;20246;-81
2023/06/09 00:53:43;;;;;;;12.85;5.85;;;12.40;99.90;;;;;;5070144;28;20209;-81
2023/06/09 00:56:08;;;;;;;10.90;6.50;;;12.60;99.90;;;;;;5069913;28;20411;-81
2023/06/09 00:58:34;;;;;;;14.10;6.13;;;12.40;99.90;;;;;;5052300;28;20041;-81
2023/06/09 01:01:00;;;;;;;10.77;6.00;;;12.40;99.90;;;;;;5069293;28;20052;-82
2023/06/09 01:03:26;;;;;;;17.13;6.43;;;12.40;99.90;;;;;;5069223;28;20135;-81
2023/06/09 01:06:13;;;;;;;9.85;5.55;;;12.40;99.90;;;;;;5067715;28;20084;-80
2023/06/09 01:08:47;;;;;;;16.10;6.28;;;12.30;99.90;;;;;;5069434;28;20120;-80
2023/06/09 01:11:28;;;;;;;12.43;6.50;;;12.30;99.90;;;;;;5067678;28;20048;-80
2023/06/09 01:14:13;;;;;;;10.50;6.00;;;12.30;99.90;;;;;;5067892;28;20055;-81
2023/06/09 01:16:47;;;;;;;10.85;5.82;;;12.30;99.90;;;;;;5067380;28;20063;-81
2023/06/09 01:19:33;;;;;;;13.30;6.80;;;12.30;99.90;;;;;;5068499;28;20040;-82
2023/06/09 01:22:03;;;;;;;20.60;7.32;;;12.20;99.90;;;;;;5068989;28;20076;-81
2023/06/09 01:25:10;;;;;;;11.50;6.53;;;12.80;99.90;;;;;;5068755;28;20051;-81
2023/06/09 01:27:39;;;;;;;15.40;6.28;;;12.20;99.90;;;;;;5007532;28;20470;-81
2023/06/09 01:30:06;;;;;;;15.27;6.65;;;12.20;99.90;;;;;;5042504;28;20063;-79
2023/06/09 01:32:32;;;;;;;16.60;6.80;;;12.10;99.90;;;;;;5051655;28;20040;-81
2023/06/09 01:34:58;;;;;;;15.07;6.78;;;12.10;99.90;;;;;;5067371;28;20373;-81
2023/06/09 01:37:24;;;;;;;17.15;6.57;;;12.10;99.90;;;;;;5068242;28;20056;-81
2023/06/09 01:39:50;;;;;;;11.82;6.70;;;12.10;99.90;;;;;;5067912;28;20484;-81
2023/06/09 01:42:16;;;;;;;17.92;6.63;;;12.00;99.90;;;;;;5068303;28;20045;-82
2023/06/09 01:44:42;;;;;;;13.95;7.00;;;12.20;99.90;;;;;;5068315;28;20085;-82
2023/06/09 01:47:07;;;;;;;14.18;6.50;;;12.00;99.90;;;;;;5067372;28;20048;-82
2023/06/09 01:49:47;;;;;;;17.95;7.68;;;12.00;99.90;;;;;;5067865;28;20049;-81
2023/06/09 01:52:21;;;;;;;15.38;7.45;;;11.90;99.90;;;;;;5066964;28;20048;-82
2023/06/09 01:54:55;;;;;;;13.75;7.65;;;11.90;99.90;;;;;;5067145;28;20044;-82
2023/06/09 01:57:30;;;;;;;14.30;7.00;;;11.90;99.90;;;;;;5067986;28;20040;-81
2023/06/09 02:00:00;;;;;;;15.32;7.53;;;11.90;99.90;;;;;;5068468;28;20045;-81
2023/06/09 02:02:28;;;;;;;16.30;7.68;;;11.80;99.90;;;;;;5068370;28;20373;-80
2023/06/09 02:04:56;;;;;;;16.23;7.60;;;11.80;99.90;;;;;;5068360;28;20508;-81
2023/06/09 02:07:22;;;;;;;15.60;7.68;;;12.20;99.90;;;;;;5067839;28;20044;-80
2023/06/09 02:09:49;;;;;;;16.45;7.85;;;11.70;99.90;;;;;;5071764;28;20076;-80
2023/06/09 02:12:15;;;;;;;15.68;8.75;;;11.70;99.90;;;;;;5070051;28;20067;-81
2023/06/09 02:14:41;;;;;;;17.13;8.10;;;11.70;99.90;;;;;;5069581;28;20049;-81
2023/06/09 02:17:08;;;;;;;20.30;7.78;;;11.70;99.90;;;;;;5052071;28;20052;-82
2023/06/09 02:19:37;;;;;;;17.75;7.88;;;11.70;99.90;;;;;;5052277;28;20048;-82
2023/06/09 02:22:05;;;;;;;19.05;8.68;;;11.70;99.90;;;;;;5070461;28;20132;-82
2023/06/09 02:24:30;;;;;;;16.15;7.40;;;11.60;99.90;;;;;;5070055;28;20041;-82
2023/06/09 02:26:56;;;;;;;16.80;8.18;;;11.60;99.90;;;;;;5068682;28;20048;-81
2023/06/09 02:29:26;;;;;;;17.00;7.85;;;11.60;99.90;;;;;;5069269;28;20052;-82
2023/06/09 02:31:55;;;;;;;16.27;8.00;;;11.60;99.90;;;;;;5053297;28;20098;-80
2023/06/09 02:34:25;;;;;;;17.00;9.00;;;11.60;99.90;;;;;;5068559;28;20044;-80
2023/06/09 02:36:54;;;;;;;15.38;7.72;;;11.50;99.90;;;;;;5072601;28;20083;-82
2023/06/09 02:39:20;;;;;;;15.75;8.10;;;11.50;99.90;;;;;;5072758;28;20040;-82
2023/06/09 02:41:46;;;;;;;17.40;8.25;;;11.50;99.90;;;;;;5069597;28;20044;-82
2023/06/09 02:44:12;;;;;;;23.40;8.65;;;11.50;99.90;;;;;;5068262;28;20044;-80
2023/06/09 02:46:40;;;;;;;17.48;8.23;;;11.50;99.90;;;;;;5069846;28;20036;-81
2023/06/09 02:49:08;;;;;;;20.77;8.90;;;12.00;99.90;;;;;;5053717;28;20094;-81
2023/06/09 02:51:36;;;;;;;18.45;8.00;;;11.50;99.90;;;;;;5071387;28;20071;-81
2023/06/09 02:54:02;;;;;;;16.65;8.95;;;11.50;99.90;;;;;;5072499;28;20090;-81
2023/06/09 02:56:27;;;;;;;15.48;8.82;;;11.50;99.90;;;;;;5071896;28;20051;-82
2023/06/09 02:58:53;;;;;;;20.00;8.25;;;11.50;99.90;;;;;;5070468;28;20040;-82
2023/06/09 03:01:20;;;;;;;20.02;9.20;;;11.40;99.90;;;;;;5070487;28;20106;-82
2023/06/09 03:03:47;;;;;;;16.17;7.93;;;11.60;99.90;;;;;;5072315;28;20045;-82
2023/06/09 03:06:13;;;;;;;18.25;8.35;;;11.40;99.90;;;;;;5053948;28;20045;-81
2023/06/09 03:08:43;;;;;;;19.02;8.77;;;11.50;99.90;;;;;;5071849;28;20488;-81
2023/06/09 03:11:10;;;;;;;17.52;9.18;;;11.50;99.90;;;;;;5071008;28;20044;-83
2023/06/09 03:13:35;;;;;;;16.45;8.55;;;11.40;99.90;;;;;;5071160;28;20098;-81
2023/06/09 03:16:02;;;;;;;16.25;8.40;;;11.40;99.90;;;;;;5053127;28;20446;-81
2023/06/09 03:18:29;;;;;;;16.30;8.57;;;11.40;99.90;;;;;;5070050;28;20098;-82
2023/06/09 03:20:55;;;;;;;17.23;7.85;;;11.40;99.90;;;;;;5070927;28;20041;-81
2023/06/09 03:23:21;;;;;;;19.85;8.60;;;11.40;99.90;;;;;;5071148;28;20048;-82
2023/06/09 03:25:51;;;;;;;16.25;7.80;;;11.80;99.90;;;;;;5068660;28;20539;-83
2023/06/09 03:28:18;;;;;;;16.15;7.80;;;11.40;99.90;;;;;;5069680;28;20458;-80
2023/06/09 03:30:44;;;;;;;16.30;8.20;;;11.50;99.90;;;;;;5070455;28;20052;-81
2023/06/09 03:33:11;;;;;;;16.35;7.38;;;11.50;99.90;;;;;;5052932;28;20358;-80
2023/06/09 03:35:36;;;;;;;16.83;7.60;;;11.50;99.90;;;;;;5051931;28;20075;-81
2023/06/09 03:38:02;;;;;;;16.08;7.75;;;11.50;99.90;;;;;;5069410;28;20428;-81
2023/06/09 03:40:28;;;;;;;17.10;8.50;;;11.50;99.90;;;;;;5069552;28;20488;-79
2023/06/09 03:42:53;;;;;;;17.65;8.38;;;11.50;99.90;;;;;;5070561;28;20149;-80
2023/06/09 03:45:19;;;;;;;15.15;8.43;;;11.60;99.90;;;;;;5069011;28;20051;-81
2023/06/09 03:47:45;;;;;;;16.42;8.35;;;11.60;99.90;;;;;;5052066;28;20041;-81
2023/06/09 03:50:11;;;;;;;16.10;8.15;;;11.60;99.90;;;;;;5069706;28;20044;-82
2023/06/09 03:52:36;;;;;;;18.48;8.63;;;11.60;99.90;;;;;;5052553;28;20052;-80
2023/06/09 03:55:02;;;;;;;13.07;7.43;;;11.60;99.90;;;;;;5070854;28;20044;-81
2023/06/09 03:57:28;;;;;;;16.13;8.07;;;11.70;99.90;;;;;;5071342;28;20113;-81
2023/06/09 03:59:53;;;;;;;17.73;7.95;;;11.70;99.90;;;;;;5070098;28;20505;-80
2023/06/09 04:02:19;;;;;;;18.13;8.32;;;11.70;99.90;;;;;;5068633;28;20095;-81
2023/06/09 04:04:45;;;;;;;17.13;7.65;;;11.80;99.90;;;;;;5069052;28;20047;-81
2023/06/09 04:07:11;;;;;;;14.75;8.20;;;11.80;99.90;;;;;;5070849;28;20055;-81
2023/06/09 04:09:37;;;;;;;19.27;7.75;;;11.80;99.90;;;;;;5068745;28;20048;-81
2023/06/09 04:12:03;;;;;;;15.63;7.97;;;11.80;99.90;;;;;;5070109;28;20044;-81
2023/06/09 04:14:28;;;;;;;16.63;7.47;;;11.90;99.90;;;;;;5067906;28;20045;-82
2023/06/09 04:16:54;;;;;;;13.38;7.00;;;11.90;99.90;;;;;;5068731;28;20450;-81
2023/06/09 04:19:20;;;;;;;18.25;7.70;;;11.90;99.90;;;;;;5069818;28;20055;-81
2023/06/09 04:21:46;;;;;;;15.43;7.43;;;12.00;99.90;;;;;;5070344;28;20208;-81
2023/06/09 04:24:14;;;;;;;16.55;7.85;;;12.00;99.90;;;;;;5071395;28;20055;-81
2023/06/09 04:26:40;;;;;;;16.65;7.60;;;12.20;99.90;;;;;;5069933;28;20451;-81
2023/06/09 04:29:09;;;;;;;16.58;7.43;;;12.10;99.90;;;;;;5069503;28;20048;-81
2023/06/09 04:31:37;;;;;;;15.63;7.30;;;12.20;99.90;;;;;;5067516;28;20071;-81
2023/06/09 04:34:09;;;;;;;22.52;8.75;;;12.20;99.90;;;;;;5068216;28;20061;-81
2023/06/09 04:36:36;;;;;;;16.42;7.63;;;12.30;99.90;;;;;;5051388;28;20098;-81
2023/06/09 04:39:03;;;;;;;17.02;8.07;;;12.30;99.90;;;;;;5068699;28;20413;-81
2023/06/09 04:41:31;;;;;;;14.73;6.93;;;12.30;99.90;;;;;;5068070;28;20098;-81
2023/06/09 04:44:03;;;;;;;19.45;7.85;;;12.40;99.90;;;;;;5067591;28;20052;-80
2023/06/09 04:46:42;;;;;;;13.10;7.63;;;12.40;99.90;;;;;;5068042;28;20067;-81
2023/06/09 04:49:11;;;;;;;16.13;7.38;;;12.50;99.90;;;;;;5068872;28;20040;-80
2023/06/09 04:51:46;;;;;;;15.45;7.78;;;12.70;99.90;;;;;;5067370;28;20483;-81
2023/06/09 04:54:18;;;;;;;17.27;8.13;;;12.60;99.90;;;;;;5070261;28;20053;-81
2023/06/09 04:56:49;;;;;;;14.90;7.63;;;12.60;99.90;;;;;;5068119;28;20048;-80
2023/06/09 04:59:15;;;;;;;15.55;8.38;;;13.00;99.90;;;;;;5051525;28;20134;-80
2023/06/09 05:01:41;;;;;;;15.23;6.90;;;12.80;99.90;;;;;;5069514;28;20060;-82
2023/06/09 05:04:07;;;;;;;14.43;7.28;;;12.80;99.90;;;;;;5069466;28;20044;-81
2023/06/09 05:06:33;;;;;;;17.42;8.52;;;12.90;99.90;;;;;;5067584;28;20044;-81
2023/06/09 05:08:58;;;;;;;16.17;8.18;;;13.00;99.90;;;;;;5068662;28;20040;-81
2023/06/09 05:11:24;;;;;;;19.00;7.50;;;13.00;99.90;;;;;;5067877;28;20059;-80
2023/06/09 05:13:50;;;;;;;13.45;6.93;;;13.40;99.90;;;;;;5067525;28;20059;-81
2023/06/09 05:16:15;;;;;;;15.30;7.18;;;13.20;99.90;;;;;;5069442;28;20041;-80
2023/06/09 05:18:42;;;;;;;15.38;7.93;;;13.30;99.90;;;;;;5067874;28;20041;-81
2023/06/09 05:21:08;;;;;;;14.20;7.85;;;13.30;99.90;;;;;;5067847;28;20210;-81
2023/06/09 05:23:33;;;;;;;15.98;7.65;;;13.40;99.90;;;;;;5069853;28;20139;-81
2023/06/09 05:26:00;;;;;;;19.83;8.52;;;13.50;99.90;;;;;;5067544;28;20110;-81
2023/06/09 05:28:26;;;;;;;15.38;7.25;;;13.60;99.90;;;;;;5070254;28;20048;-83
2023/06/09 05:30:52;;;;;;;13.57;7.40;;;14.10;99.90;;;;;;5069576;28;20057;-82
2023/06/09 05:33:17;;;;;;;11.27;6.68;;;15.00;99.90;;;;;;5068500;28;20106;-81
2023/06/09 05:35:43;;;;;;;13.13;7.50;;;15.90;99.90;;;;;;5068451;28;20097;-81
2023/06/09 05:38:09;;;;;;;14.88;7.35;;;16.70;99.90;;;;;;5069631;28;20052;-81
2023/06/09 05:40:34;;;;;;;14.25;6.80;;;17.30;99.90;;;;;;5070236;28;20055;-81
2023/06/09 05:43:00;;;;;;;12.93;7.20;;;18.20;99.90;;;;;;5051271;28;20446;-81
2023/06/09 05:45:26;;;;;;;15.07;7.03;;;18.10;99.90;;;;;;5055043;28;20087;-82
2023/06/09 05:47:51;;;;;;;11.90;6.28;;;18.40;99.90;;;;;;5070909;28;20053;-81
2023/06/09 05:50:17;;;;;;;10.30;6.72;;;18.80;99.90;;;;;;5071235;28;20613;-81
2023/06/09 05:52:43;;;;;;;13.20;6.95;;;19.10;99.90;;;;;;5068718;28;20048;-80
2023/06/09 05:55:08;;;;;;;15.07;6.43;;;19.30;99.90;;;;;;5067973;28;20072;-80
2023/06/09 05:57:34;;;;;;;8.45;6.30;;;19.40;99.90;;;;;;5070330;28;20079;-81
2023/06/09 06:00:03;;;;;;;13.40;7.35;;;19.50;99.90;;;;;;5069893;28;20048;-81
2023/06/09 06:02:28;;;;;;;11.75;6.45;;;19.80;99.90;;;;;;5070618;28;20044;-81
2023/06/09 06:04:54;;;;;;;14.10;6.57;;;20.10;99.90;;;;;;5074626;28;20439;-81
2023/06/09 06:07:20;;;;;;;10.90;5.95;;;20.50;99.90;;;;;;5068716;28;20121;-81
2023/06/09 06:09:46;;;;;;;13.60;6.85;;;20.40;99.90;;;;;;5068962;28;20060;-81
2023/06/09 06:12:11;;;;;;;16.77;6.32;;;20.40;99.90;;;;;;5068404;28;20696;-81
2023/06/09 06:14:37;;;;;;;12.25;6.28;;;20.40;99.90;;;;;;5068040;28;20056;-82
2023/06/09 06:17:03;;;;;;;12.75;6.65;;;20.20;99.90;;;;;;5069158;28;20443;-82
2023/06/09 06:19:28;;;;;;;14.35;6.13;;;20.30;99.90;;;;;;5067371;28;20041;-82
2023/06/09 06:21:54;;;;;;;10.05;5.90;;;20.60;99.90;;;;;;5069142;28;20066;-82
2023/06/09 06:24:20;;;;;;;12.23;6.43;;;20.80;99.90;;;;;;5068937;28;20183;-79
2023/06/09 06:26:45;;;;;;;8.90;5.80;;;21.00;99.90;;;;;;5070607;28;20393;-80
2023/06/09 06:29:11;;;;;;;11.55;5.80;;;21.20;99.90;;;;;;5071214;28;20171;-81
2023/06/09 06:31:36;;;;;;;9.98;5.72;;;21.30;99.90;;;;;;5056461;28;20059;-82
2023/06/09 06:34:02;;;;;;;10.48;5.68;;;21.50;99.90;;;;;;5054865;28;20497;-82
2023/06/09 06:36:27;;;;;;;10.23;6.05;;;21.40;99.00;;;;;;5071493;28;20048;-81
2023/06/09 06:38:53;;;;;;;11.23;5.97;;;21.60;98.90;;;;;;5071566;28;20048;-82
2023/06/09 06:41:18;;;;;;;11.65;5.50;;;20.60;99.50;;;;;;5055118;28;20036;-82
2023/06/09 06:43:45;;;;;;;15.25;6.35;;;19.90;99.90;;;;;;5073429;28;20354;-81
2023/06/09 06:46:11;;;;;;;10.85;5.55;;;19.40;99.90;;;;;;5073961;28;20508;-81
2023/06/09 06:48:39;;;;;;;10.18;5.65;;;19.30;99.90;;;;;;5075370;28;20044;-81
2023/06/09 06:51:07;;;;;;;10.98;5.35;;;19.10;99.90;;;;;;5074377;28;20048;-82
2023/06/09 06:53:50;;;;;;;9.43;5.25;;;19.00;99.90;;;;;;5070128;28;20053;-81
2023/06/09 06:56:16;;;;;;;10.77;5.65;;;18.90;99.90;;;;;;5055425;28;20575;-81
2023/06/09 06:58:42;;;;;;;11.68;6.03;;;18.90;99.90;;;;;;5074257;28;20079;-81
2023/06/09 07:01:07;;;;;;;9.55;5.78;;;19.00;99.90;;;;;;5074946;28;20040;-82
2023/06/09 07:03:35;;;;;;;8.63;5.25;;;19.00;99.90;;;;;;5073691;28;20051;-82
2023/06/09 07:06:01;;;;;;;10.02;5.55;;;19.00;99.90;;;;;;5074594;28;20419;-81
2023/06/09 07:08:27;;;;;;;8.43;6.13;;;19.30;99.90;;;;;;5075977;28;20136;-81
2023/06/09 07:10:53;;;;;;;8.98;5.60;;;19.20;99.90;;;;;;5076926;28;20128;-81
2023/06/09 07:13:18;;;;;;;9.15;5.25;;;19.20;99.90;;;;;;5059916;28;20080;-80
2023/06/09 07:15:44;;;;;;;11.68;5.88;;;19.40;99.90;;;;;;5073287;28;20041;-81
2023/06/09 07:18:11;;;;;;;10.95;5.80;;;19.30;99.90;;;;;;5073772;28;20041;-80
2023/06/09 07:20:36;;;;;;;9.13;5.70;;;19.20;99.90;;;;;;5073293;28;20533;-80
2023/06/09 07:23:02;;;;;;;8.38;5.65;;;19.10;99.90;;;;;;5075170;28;20052;-82
2023/06/09 07:25:28;;;;;;;10.88;5.53;;;19.10;99.90;;;;;;5058278;28;20056;-81
2023/06/09 07:27:53;;;;;;;11.00;5.65;;;19.30;99.90;;;;;;5075059;28;20055;-81
2023/06/09 07:30:19;;;;;;;10.90;5.50;;;19.30;99.90;;;;;;5075043;28;20139;-81
2023/06/09 07:32:44;;;;;;;13.63;5.40;;;19.50;99.90;;;;;;5073617;28;20048;-82
2023/06/09 07:35:12;;;;;;;10.40;5.50;;;19.40;99.90;;;;;;5073863;28;20457;-81
2023/06/09 07:37:39;;;;;;;13.82;6.05;;;19.50;99.90;;;;;;5074352;28;20071;-81
2023/06/09 07:40:07;;;;;;;9.70;5.75;;;19.70;99.90;;;;;;5075967;28;20091;-81
2023/06/09 07:42:32;;;;;;;9.02;4.85;;;19.70;99.90;;;;;;5078235;28;20063;-81
2023/06/09 07:44:58;;;;;;;10.50;5.03;;;19.80;99.90;;;;;;5076666;28;20032;-81
2023/06/09 07:47:23;;;;;;;12.43;5.80;;;19.90;99.90;;;;;;5079138;28;20078;-82
2023/06/09 07:49:49;;;;;;;10.85;5.30;;;20.00;99.70;;;;;;5072161;28;20040;-81
2023/06/09 07:52:15;;;;;;;10.45;5.60;;;20.10;99.90;;;;;;5079906;28;20457;-83
2023/06/09 07:54:40;;;;;;;10.02;5.07;;;20.30;99.60;;;;;;5061464;28;20643;-81
2023/06/09 07:57:06;;;;;;;8.32;4.90;;;20.40;99.40;;;;;;5082652;28;20048;-81
2023/06/09 07:59:31;;;;;;;9.57;5.47;;;20.60;99.10;;;;;;5081178;28;20079;-81
2023/06/09 08:01:57;;;;;;;8.68;5.07;;;20.80;98.80;;;;;;5084406;28;20040;-81
2023/06/09 08:04:23;;;;;;;10.15;5.10;;;20.80;98.70;;;;;;5079285;28;20205;-82
2023/06/09 08:06:48;;;;;;;8.55;5.72;;;21.00;98.30;;;;;;5086278;28;20041;-81
2023/06/09 08:09:14;;;;;;;11.20;5.47;;;21.10;97.80;;;;;;5065038;28;20040;-81
2023/06/09 08:11:40;;;;;;;8.98;5.78;;;21.20;97.30;;;;;;5075944;28;20438;-81
2023/06/09 08:14:08;;;;;;;9.63;5.57;;;21.20;96.80;;;;;;5054929;28;20105;-82
2023/06/09 08:16:34;;;;;;;11.93;5.20;;;21.30;96.50;;;;;;5072808;28;20052;-82
2023/06/09 08:19:00;;;;;;;7.72;5.43;;;21.50;96.40;;;;;;5073544;28;20051;-82
2023/06/09 08:21:25;;;;;;;9.40;5.13;;;21.40;96.40;;;;;;5072575;28;20048;-80
2023/06/09 08:23:52;;;;;;;8.65;4.82;;;21.50;96.30;;;;;;5076153;28;20059;-81
2023/06/09 08:26:18;;;;;;;8.35;5.28;;;21.70;96.20;;;;;;5073280;28;20155;-81
2023/06/09 08:28:43;;;;;;;9.90;5.20;;;21.90;95.50;;;;;;5073924;28;20569;-80
2023/06/09 08:31:09;;;;;;;9.25;5.35;;;22.10;94.80;;;;;;5074301;28;20092;-81
2023/06/09 08:33:36;;;;;;;13.10;5.53;;;22.10;94.80;;;;;;5070518;28;20087;-80
2023/06/09 08:36:05;;;;;;;10.77;5.05;;;22.10;94.50;;;;;;5074636;28;20052;-82
2023/06/09 08:38:32;;;;;;;8.63;4.78;;;22.20;94.50;;;;;;5072411;28;20048;-81
2023/06/09 08:41:04;;;;;;;6.57;4.93;;;22.40;94.40;;;;;;5072495;28;20091;-80
2023/06/09 08:43:31;;;;;;;8.15;5.00;;;22.60;93.60;;;;;;5076011;28;20044;-81
2023/06/09 08:45:59;;;;;;;9.27;4.40;;;22.90;93.60;;;;;;5069177;28;20037;-80
2023/06/09 08:48:26;;;;;;;9.52;5.10;;;23.10;92.90;;;;;;5067986;28;20123;-81
2023/06/09 08:50:54;;;;;;;7.75;4.63;;;23.20;91.30;;;;;;5068884;28;20041;-81
2023/06/09 08:53:20;;;;;;;7.38;4.72;;;23.30;90.80;;;;;;5069533;28;20045;-81
2023/06/09 08:55:47;;;;;;;7.63;4.93;;;23.60;90.10;;;;;;5068820;28;20074;-80
2023/06/09 08:58:14;;;;;;;9.25;4.85;;;23.60;89.00;;;;;;5071944;28;20041;-81
2023/06/09 09:00:41;;;;;;;8.13;4.18;;;23.60;87.60;;;;;;5072590;28;20128;-81
2023/06/09 09:03:07;;;;;;;8.77;4.75;;;23.80;86.20;;;;;;5075324;28;20052;-81
2023/06/09 09:05:33;;;;;;;5.80;4.32;;;23.70;85.50;;;;;;5071905;28;20040;-81
2023/06/09 09:07:59;;;;;;;6.65;4.50;;;23.90;84.80;;;;;;5071781;28;20587;-80
2023/06/09 09:10:28;;;;;;;6.60;4.65;;;23.90;83.70;;;;;;5073620;28;20061;-81
2023/06/09 09:12:58;;;;;;;8.65;5.10;;;24.10;83.00;;;;;;5071483;28;20048;-82
2023/06/09 09:15:25;;;;;;;7.05;4.43;;;24.20;83.20;;;;;;5073409;28;20064;-81
2023/06/09 09:17:51;;;;;;;6.18;4.68;;;24.50;82.50;;;;;;5073882;28;20045;-82
2023/06/09 09:20:17;;;;;;;7.30;4.65;;;24.70;81.10;;;;;;5073702;28;20049;-81
2023/06/09 09:22:50;;;;;;;7.05;5.00;;;24.70;80.10;;;;;;5071817;28;20056;-81
2023/06/09 09:25:27;;;;;;;9.70;5.10;;;24.50;78.70;;;;;;5071611;28;20466;-80
2023/06/09 09:28:07;;;;;;;6.68;4.70;;;24.60;77.60;;;;;;5075046;28;20443;-81
2023/06/09 09:30:41;;;;;;;8.15;4.40;;;24.70;77.20;;;;;;5067035;28;20048;-81
2023/06/09 09:33:11;;;;;;;8.70;5.10;;;24.80;78.30;;;;;;5072415;28;20059;-81
2023/06/09 09:35:38;;;;;;;7.40;4.38;;;25.00;77.90;;;;;;5073509;28;20048;-81
2023/06/09 09:38:10;;;;;;;7.88;4.60;;;25.20;77.00;;;;;;5070364;28;20167;-82
2023/06/09 09:40:40;;;;;;;;;;;25.40;76.30;;;;;;5070896;28;20045;-81
2023/06/09 09:43:08;;;;;;;7.85;4.70;;;25.40;74.60;;;;;;5070699;28;19924;-81
2023/06/09 09:45:37;;;;;;;8.27;4.55;;;25.50;75.30;;;;;;5074159;28;20071;-81
2023/06/09 09:48:11;;;;;;;7.07;5.25;;;25.40;74.40;;;;;;5069147;28;20044;-80
2023/06/09 09:50:41;;;;;;;5.93;4.40;;;25.70;71.90;;;;;;5074167;28;20087;-81
2023/06/09 09:53:07;;;;;;;6.72;4.85;;;25.80;72.40;;;;;;5067368;28;20055;-81
2023/06/09 09:55:38;;;;;;;7.05;4.60;;;25.80;71.70;;;;;;5074401;28;20174;-81
2023/06/09 09:58:07;;;;;;;5.88;5.22;;;26.00;70.60;;;;;;5070689;28;20050;-81
2023/06/09 10:00:37;;;;;;;6.55;4.60;;;26.00;70.70;;;;;;5068514;28;20136;-81
2023/06/09 10:03:07;;;;;;;9.07;4.82;;;26.10;70.10;;;;;;5053806;28;20049;-81
2023/06/09 10:05:35;;;;;;;7.75;4.85;;;26.30;69.30;;;;;;5071036;28;20041;-81
2023/06/09 10:08:03;;;;;;;4.95;4.40;;;26.30;68.60;;;;;;5074365;28;20532;-81
2023/06/09 10:10:32;;;;;;;7.73;4.70;;;26.20;67.70;;;;;;5070818;28;20060;-82
2023/06/09 10:13:00;;;;;;;7.80;4.55;;;26.20;67.20;;;;;;5073835;28;20303;-82
2023/06/09 10:15:26;;;;;;;8.52;5.13;;;26.20;66.80;;;;;;5073353;28;20060;-80
2023/06/09 10:17:54;;;;;;;4.90;4.15;;;26.30;66.60;;;;;;5069370;28;20601;-81
2023/06/09 10:20:20;;;;;;;7.88;4.70;;;26.40;66.20;;;;;;5068864;28;20511;-82
2023/06/09 10:22:47;;;;;;;5.78;4.38;;;26.50;65.80;;;;;;5072790;28;20107;-81
2023/06/09 10:25:12;;;;;;;8.00;4.65;;;26.70;65.70;;;;;;5067583;28;20049;-81
2023/06/09 10:27:40;;;;;;;5.78;4.50;;;26.90;64.60;;;;;;5071791;28;20507;-81
2023/06/09 10:30:08;;;;;;;6.03;4.53;;;27.00;63.50;;;;;;5070974;28;20135;-81
2023/06/09 10:32:37;;;;;;;6.30;4.68;;;26.90;62.80;;;;;;5069840;28;20693;-80
2023/06/09 10:35:05;;;;;;;5.53;4.30;;;27.00;62.90;;;;;;5066443;28;20111;-81
2023/06/09 10:37:32;;;;;;;5.25;4.63;;;27.00;63.00;;;;;;5071435;28;20037;-81
2023/06/09 10:40:22;;;;;;;5.88;4.18;;;27.10;62.50;;;;;;5073450;28;20106;-81
2023/06/09 10:43:07;;;;;;;5.35;4.50;;;27.00;60.80;;;;;;5071743;28;20103;-81
2023/06/09 10:45:56;;;;;;;4.80;4.35;;;27.20;61.60;;;;;;5072511;28;20473;-81
2023/06/09 10:48:44;;;;;;;5.72;4.70;;;27.00;61.30;;;;;;5073375;28;20048;-82
2023/06/09 10:51:28;;;;;;;6.57;4.30;;;27.20;60.20;;;;;;5072897;28;20051;-81
2023/06/09 10:54:15;;;;;;;6.55;4.35;;;27.30;59.30;;;;;;5050053;28;20492;-82
2023/06/09 10:56:46;;;;;;;5.80;4.35;;;27.30;58.90;;;;;;5072230;28;20384;-81
2023/06/09 10:59:24;;;;;;;;;;;27.40;59.70;;;;;;5070201;28;20036;-82
2023/06/09 11:02:02;;;;;;;5.15;4.43;;;27.50;57.40;;;;;;5067411;28;19924;-80
2023/06/09 11:04:45;;;;;;;4.93;4.43;;;27.70;58.50;;;;;;5054315;28;20093;-81
2023/06/09 11:07:15;;;;;;;5.40;4.32;;;27.80;58.60;;;;;;5071401;28;20045;-82
2023/06/09 11:10:00;;;;;;;6.80;4.68;;;27.70;59.00;;;;;;5071605;28;20048;-82
2023/06/09 11:12:49;;;;;;;6.68;4.53;;;28.00;58.50;;;;;;5074314;28;20600;-80
2023/06/09 11:15:16;;;;;;;4.97;4.05;;;28.10;58.00;;;;;;5076495;28;20044;-81
2023/06/09 11:17:52;;;;;;;5.78;4.68;;;28.10;58.40;;;;;;5075090;28;20076;-81
2023/06/09 11:20:23;;;;;;;5.18;4.57;;;28.20;58.40;;;;;;5071416;28;20439;-81
2023/06/09 11:22:49;;;;;;;10.00;5.00;;;28.40;57.80;;;;;;5075384;28;20148;-81
2023/06/09 11:25:15;;;;;;;4.78;4.32;;;28.30;56.90;;;;;;5073393;28;20087;-81
2023/06/09 11:27:41;;;;;;;5.13;4.43;;;28.20;56.50;;;;;;5075318;28;20075;-81
2023/06/09 11:30:17;;;;;;;5.18;4.22;;;28.30;56.30;;;;;;5075223;28;20063;-80
2023/06/09 11:33:00;;;;;;;4.50;4.05;;;28.30;56.90;;;;;;5074871;28;20075;-80
2023/06/09 11:35:32;;;;;;;7.78;4.93;;;28.50;56.80;;;;;;5070116;28;20047;-80
2023/06/09 11:37:59;;;;;;;;;;;28.80;56.30;;;;;;5078229;28;20594;-81
2023/06/09 11:40:28;;;;;;;7.25;4.80;;;28.70;55.20;;;;;;5075504;28;19947;-80
2023/06/09 11:42:59;;;;;;;4.85;4.43;;;28.70;56.70;;;;;;5077670;28;20052;-80
2023/06/09 11:45:31;;;;;;;8.85;4.65;;;28.90;56.10;;;;;;5076165;28;20121;-79
2023/06/09 11:47:59;;;;;;;5.57;4.53;;;28.80;55.60;;;;;;5074124;28;20049;-80
2023/06/09 11:50:27;;;;;;;6.63;4.35;;;28.70;55.60;;;;;;5073880;28;20440;-80
2023/06/09 11:53:04;;;;;;;6.22;5.20;;;28.80;55.40;;;;;;5051885;28;20494;-81
2023/06/09 11:55:30;;;;;;;7.00;4.70;;;28.80;53.60;;;;;;5069570;28;20056;-80
2023/06/09 11:57:56;;;;;;;5.57;4.97;;;28.70;54.60;;;;;;5069545;28;20130;-81
2023/06/09 12:00:26;;;;;;;9.63;4.57;;;28.80;54.40;;;;;;5068363;28;20051;-81
2023/06/09 12:02:52;;;;;;;5.50;4.47;;;28.90;54.90;;;;;;5070109;28;20060;-80
2023/06/09 12:05:19;;;;;;;5.32;4.53;;;28.90;55.10;;;;;;5071582;28;20343;-81
2023/06/09 12:07:46;;;;;;;5.00;4.50;;;28.90;53.60;;;;;;5069788;28;20082;-80
2023/06/09 12:10:13;;;;;;;6.15;4.65;;;28.90;53.50;;;;;;5070869;28;20079;-81
2023/06/09 12:12:47;;;;;;;4.65;4.28;;;28.80;53.10;;;;;;5069555;28;20480;-81
2023/06/09 12:15:15;;;;;;;7.03;4.18;;;28.90;52.70;;;;;;5072061;28;20476;-81
2023/06/09 12:17:41;;;;;;;6.15;4.90;;;28.90;53.10;;;;;;5070291;28;20523;-80
2023/06/09 12:20:35;;;;;;;6.15;4.88;;;28.90;53.60;;;;;;5070005;28;20040;-81
2023/06/09 12:23:08;;;;;;;6.38;4.75;;;28.90;51.80;;;;;;5071597;28;20048;-80
2023/06/09 12:25:39;;;;;;;6.15;4.38;;;29.20;53.10;;;;;;5072550;28;20040;-80
2023/06/09 12:28:13;;;;;;;5.93;4.70;;;29.20;52.40;;;;;;5073990;28;20044;-81
2023/06/09 12:30:49;;;;;;;5.13;4.63;;;29.20;52.20;;;;;;5071265;28;20075;-81
2023/06/09 12:33:17;;;;;;;5.72;4.57;;;29.30;52.30;;;;;;5068646;28;20511;-82
2023/06/09 12:35:47;;;;;;;5.00;4.50;;;29.30;51.80;;;;;;5068487;28;20051;-83
2023/06/09 12:38:13;;;;;;;7.33;4.53;;;29.40;51.70;;;;;;5069862;28;20039;-81
2023/06/09 12:40:49;;;;;;;5.95;4.68;;;29.50;51.90;;;;;;5067401;28;20666;-82
2023/06/09 12:43:26;;;;;;;5.05;4.32;;;29.60;51.50;;;;;;5069130;28;20585;-83
2023/06/09 12:45:58;;;;;;;5.82;4.80;;;29.70;51.10;;;;;;5071239;28;20150;-82
2023/06/09 12:48:24;;;;;;;8.57;4.63;;;29.70;50.60;;;;;;5069526;28;20048;-82